sensor_id;sensor_type;location;lat;lon;timestamp;pressure;altitude;pressure_sealevel;temperature;humidity
51315;BME280;65787;59.922;10.742;2023-03-13T16:15:53;96215.38;;;21.71;21.03
51315;BME280;65787;59.922;10.742;2023-03-13T16:18:19;96218.16;;;22.42;20.63
51315;BME280;65787;59.922;10.742;2023-03-13T16:20:46;96216.84;;;22.70;19.96
51315;BME280;65787;59.922;10.742;2023-03-13T16:23:11;96215.09;;;22.99;20.20
51315;BME280;65787;59.922;10.742;2023-03-13T16:25:37;96208.22;;;23.12;20.14
51315;BME280;65787;59.922;10.742;2023-03-13T16:28:03;96218.81;;;23.25;19.79
51315;BME280;65787;59.922;10.742;2023-03-13T16:30:30;96216.91;;;23.32;19.95
51315;BME280;65787;59.922;10.742;2023-03-13T16:32:56;96209.94;;;23.38;19.60
51315;BME280;65787;59.922;10.742;2023-03-13T16:35:23;96206.06;;;23.50;19.62
51315;BME280;65787;59.922;10.742;2023-03-13T16:37:51;96196.69;;;23.55;19.44
51315;BME280;65787;59.922;10.742;2023-03-13T16:40:22;96208.50;;;23.73;19.41
51315;BME280;65787;59.922;10.742;2023-03-13T16:42:48;96201.97;;;23.89;18.74
51315;BME280;65787;59.922;10.742;2023-03-13T16:45:14;96193.94;;;19.22;23.58
51315;BME280;65787;59.922;10.742;2023-03-13T16:47:41;96204.56;;;22.15;20.66
51315;BME280;65787;59.922;10.742;2023-03-13T16:50:30;96194.63;;;23.34;19.78
51315;BME280;65787;59.922;10.742;2023-03-13T16:52:56;96194.41;;;23.61;19.26
51315;BME280;65787;59.922;10.742;2023-03-13T16:55:23;96190.22;;;23.92;19.45
51315;BME280;65787;59.922;10.742;2023-03-13T16:57:54;96197.34;;;24.25;19.28
51315;BME280;65787;59.922;10.742;2023-03-13T17:00:21;96191.56;;;24.52;19.08
51315;BME280;65787;59.922;10.742;2023-03-13T17:02:47;96205.66;;;24.76;18.65
51315;BME280;65787;59.922;10.742;2023-03-13T17:05:14;96198.63;;;24.92;18.62
51315;BME280;65787;59.922;10.742;2023-03-13T17:07:44;96202.53;;;24.91;19.02
51315;BME280;65787;59.922;10.742;2023-03-13T17:10:26;96202.91;;;24.97;19.22
51315;BME280;65787;59.922;10.742;2023-03-13T17:12:52;96194.69;;;24.90;18.86
51315;BME280;65787;59.922;10.742;2023-03-13T17:15:19;96200.56;;;24.92;19.24
51315;BME280;65787;59.922;10.742;2023-03-13T17:17:45;96209.19;;;24.98;19.12
51315;BME280;65787;59.922;10.742;2023-03-13T17:20:16;96209.59;;;24.89;19.41
51315;BME280;65787;59.922;10.742;2023-03-13T17:22:42;96189.56;;;24.92;18.97
51315;BME280;65787;59.922;10.742;2023-03-13T17:25:09;96199.78;;;24.95;19.17
51315;BME280;65787;59.922;10.742;2023-03-13T17:27:34;96196.25;;;24.98;18.92
51315;BME280;65787;59.922;10.742;2023-03-13T17:30:00;96202.91;;;25.04;18.30
51315;BME280;65787;59.922;10.742;2023-03-13T17:32:25;96198.19;;;24.90;18.41
51315;BME280;65787;59.922;10.742;2023-03-13T17:34:50;96200.94;;;24.94;18.42
51315;BME280;65787;59.922;10.742;2023-03-13T17:37:20;96192.72;;;24.90;18.53
51315;BME280;65787;59.922;10.742;2023-03-13T17:39:47;96181.38;;;24.78;18.72
51315;BME280;65787;59.922;10.742;2023-03-13T17:42:13;96202.53;;;24.99;18.23
51315;BME280;65787;59.922;10.742;2023-03-13T17:44:39;96200.16;;;24.90;18.40
51315;BME280;65787;59.922;10.742;2023-03-13T17:47:16;96201.75;;;24.95;18.30
51315;BME280;65787;59.922;10.742;2023-03-13T17:49:42;96205.66;;;24.90;18.43
51315;BME280;65787;59.922;10.742;2023-03-13T17:52:12;96203.31;;;24.88;18.59
51315;BME280;65787;59.922;10.742;2023-03-13T17:54:37;96205.66;;;24.90;18.70
51315;BME280;65787;59.922;10.742;2023-03-13T17:57:18;96200.16;;;24.93;18.71
51315;BME280;65787;59.922;10.742;2023-03-13T17:59:44;96199.78;;;24.84;18.88
51315;BME280;65787;59.922;10.742;2023-03-13T18:02:14;96188.41;;;24.86;18.79
51315;BME280;65787;59.922;10.742;2023-03-13T18:04:40;96184.47;;;24.90;18.41
51315;BME280;65787;59.922;10.742;2023-03-13T18:07:27;96170.38;;;24.92;18.30
51315;BME280;65787;59.922;10.742;2023-03-13T18:09:53;96175.06;;;24.91;18.36
51315;BME280;65787;59.922;10.742;2023-03-13T18:12:19;96164.50;;;24.79;18.54
51315;BME280;65787;59.922;10.742;2023-03-13T18:14:45;96162.13;;;24.81;18.37
51315;BME280;65787;59.922;10.742;2023-03-13T18:19:39;96173.91;;;24.89;18.68
51315;BME280;65787;59.922;10.742;2023-03-13T18:22:11;96172.34;;;24.91;18.49
51315;BME280;65787;59.922;10.742;2023-03-13T18:24:37;96176.66;;;24.92;18.64
51315;BME280;65787;59.922;10.742;2023-03-13T18:27:10;96174.69;;;25.04;18.44
51315;BME280;65787;59.922;10.742;2023-03-13T18:29:35;96177.81;;;24.95;18.50
51315;BME280;65787;59.922;10.742;2023-03-13T18:32:00;96169.19;;;25.00;18.40
51315;BME280;65787;59.922;10.742;2023-03-13T18:34:26;96166.47;;;24.89;18.27
51315;BME280;65787;59.922;10.742;2023-03-13T18:36:52;96164.09;;;24.95;18.07
51315;BME280;65787;59.922;10.742;2023-03-13T18:39:18;96160.56;;;25.02;17.96
51315;BME280;65787;59.922;10.742;2023-03-13T18:41:45;96161.34;;;24.95;18.14
51315;BME280;65787;59.922;10.742;2023-03-13T18:44:10;96158.63;;;24.84;18.26
51315;BME280;65787;59.922;10.742;2023-03-13T18:46:40;96171.13;;;25.00;18.39
51315;BME280;65787;59.922;10.742;2023-03-13T18:49:17;96161.38;;;24.81;18.26
51315;BME280;65787;59.922;10.742;2023-03-13T18:51:49;96180.19;;;25.00;18.35
51315;BME280;65787;59.922;10.742;2023-03-13T18:54:15;96166.06;;;25.02;18.33
51315;BME280;65787;59.922;10.742;2023-03-13T18:56:42;96177.44;;;25.04;18.08
51315;BME280;65787;59.922;10.742;2023-03-13T18:59:11;96159.38;;;25.06;18.06
51315;BME280;65787;59.922;10.742;2023-03-13T19:01:37;96180.94;;;25.15;17.96
51315;BME280;65787;59.922;10.742;2023-03-13T19:04:02;96177.38;;;25.22;17.75
51315;BME280;65787;59.922;10.742;2023-03-13T19:06:33;96173.09;;;25.10;18.02
51315;BME280;65787;59.922;10.742;2023-03-13T19:09:02;96174.25;;;25.16;18.31
51315;BME280;65787;59.922;10.742;2023-03-13T19:11:30;96175.44;;;25.19;17.99
51315;BME280;65787;59.922;10.742;2023-03-13T19:13:57;96181.34;;;25.24;18.29
51315;BME280;65787;59.922;10.742;2023-03-13T19:16:33;96178.94;;;25.23;18.29
51315;BME280;65787;59.922;10.742;2023-03-13T19:19:00;96175.47;;;25.26;18.02
51315;BME280;65787;59.922;10.742;2023-03-13T19:21:28;96180.53;;;25.27;17.74
51315;BME280;65787;59.922;10.742;2023-03-13T19:23:54;96178.59;;;25.28;17.80
51315;BME280;65787;59.922;10.742;2023-03-13T19:26:45;96180.13;;;25.40;18.10
51315;BME280;65787;59.922;10.742;2023-03-13T19:29:28;96178.59;;;25.32;18.18
51315;BME280;65787;59.922;10.742;2023-03-13T19:31:53;96182.88;;;25.33;17.87
51315;BME280;65787;59.922;10.742;2023-03-13T19:34:19;96180.91;;;25.29;18.03
51315;BME280;65787;59.922;10.742;2023-03-13T19:36:46;96186.41;;;25.29;18.18
51315;BME280;65787;59.922;10.742;2023-03-13T19:39:13;96181.34;;;25.24;17.94
51315;BME280;65787;59.922;10.742;2023-03-13T19:41:39;96180.13;;;25.29;18.08
51315;BME280;65787;59.922;10.742;2023-03-13T19:44:04;96118.22;;;24.92;18.08
51315;BME280;65787;59.922;10.742;2023-03-13T19:46:30;96184.47;;;25.34;18.13
51315;BME280;65787;59.922;10.742;2023-03-13T19:48:57;96191.13;;;25.29;18.03
51315;BME280;65787;59.922;10.742;2023-03-13T19:51:24;96167.59;;;25.24;17.80
51315;BME280;65787;59.922;10.742;2023-03-13T19:53:50;96137.81;;;24.98;17.75
51315;BME280;65787;59.922;10.742;2023-03-13T19:56:17;96185.22;;;25.16;18.17
51315;BME280;65787;59.922;10.742;2023-03-13T19:58:44;96187.59;;;25.18;18.04
51315;BME280;65787;59.922;10.742;2023-03-13T20:01:10;96188.38;;;25.11;18.25
51315;BME280;65787;59.922;10.742;2023-03-13T20:03:36;96190.34;;;25.18;18.10
51315;BME280;65787;59.922;10.742;2023-03-13T20:06:01;96190.34;;;25.14;18.14
51315;BME280;65787;59.922;10.742;2023-03-13T20:08:27;96193.50;;;25.23;18.24
51315;BME280;65787;59.922;10.742;2023-03-13T20:10:52;96191.91;;;25.22;18.14
51315;BME280;65787;59.922;10.742;2023-03-13T20:13:17;96175.44;;;25.11;18.00
51315;BME280;65787;59.922;10.742;2023-03-13T20:15:43;96191.94;;;25.26;18.19
51315;BME280;65787;59.922;10.742;2023-03-13T20:18:09;96193.09;;;25.28;18.08
51315;BME280;65787;59.922;10.742;2023-03-13T20:20:34;96197.00;;;25.27;17.85
51315;BME280;65787;59.922;10.742;2023-03-13T20:23:00;96208.38;;;25.29;17.95
51315;BME280;65787;59.922;10.742;2023-03-13T20:25:25;96198.56;;;25.21;18.00
51315;BME280;65787;59.922;10.742;2023-03-13T20:27:55;96210.31;;;25.18;18.06
51315;BME280;65787;59.922;10.742;2023-03-13T20:30:21;96173.50;;;25.01;18.23
51315;BME280;65787;59.922;10.742;2023-03-13T20:32:48;96209.97;;;25.23;17.81
51315;BME280;65787;59.922;10.742;2023-03-13T20:35:13;96212.31;;;25.25;18.17
51315;BME280;65787;59.922;10.742;2023-03-13T20:37:39;96211.91;;;25.12;18.16
51315;BME280;65787;59.922;10.742;2023-03-13T20:40:06;96210.34;;;25.25;17.80
51315;BME280;65787;59.922;10.742;2023-03-13T20:42:32;96231.13;;;25.19;17.78
51315;BME280;65787;59.922;10.742;2023-03-13T20:44:58;96226.44;;;25.30;17.84
51315;BME280;65787;59.922;10.742;2023-03-13T20:47:23;96239.38;;;25.34;17.68
51315;BME280;65787;59.922;10.742;2023-03-13T20:49:48;96229.56;;;25.33;17.83
51315;BME280;65787;59.922;10.742;2023-03-13T20:52:14;96238.19;;;25.35;17.65
51315;BME280;65787;59.922;10.742;2023-03-13T20:54:39;96244.06;;;25.29;17.92
51315;BME280;65787;59.922;10.742;2023-03-13T20:57:05;96252.69;;;25.35;17.78
51315;BME280;65787;59.922;10.742;2023-03-13T20:59:32;96248.41;;;25.30;17.62
51315;BME280;65787;59.922;10.742;2023-03-13T21:01:58;96244.88;;;25.26;17.87
51315;BME280;65787;59.922;10.742;2023-03-13T21:04:23;96243.28;;;25.40;17.85
51315;BME280;65787;59.922;10.742;2023-03-13T21:06:48;96253.50;;;25.25;18.05
51315;BME280;65787;59.922;10.742;2023-03-13T21:09:14;96244.84;;;25.23;17.75
51315;BME280;65787;59.922;10.742;2023-03-13T21:11:39;96257.00;;;25.22;17.80
51315;BME280;65787;59.922;10.742;2023-03-13T21:14:05;96256.66;;;25.23;17.81
51315;BME280;65787;59.922;10.742;2023-03-13T21:16:30;96268.81;;;25.26;17.77
51315;BME280;65787;59.922;10.742;2023-03-13T21:18:56;96259.38;;;25.27;17.76
51315;BME280;65787;59.922;10.742;2023-03-13T21:21:21;96266.03;;;25.22;18.02
51315;BME280;65787;59.922;10.742;2023-03-13T21:23:47;96273.91;;;25.13;17.76
51315;BME280;65787;59.922;10.742;2023-03-13T21:26:16;96283.28;;;25.23;17.65
51315;BME280;65787;59.922;10.742;2023-03-13T21:28:42;96284.50;;;25.25;17.88
51315;BME280;65787;59.922;10.742;2023-03-13T21:31:10;96295.88;;;25.35;17.89
51315;BME280;65787;59.922;10.742;2023-03-13T21:33:36;96287.63;;;25.38;17.62
51315;BME280;65787;59.922;10.742;2023-03-13T21:36:01;96290.38;;;25.35;17.47
51315;BME280;65787;59.922;10.742;2023-03-13T21:38:26;96282.13;;;25.27;17.98
51315;BME280;65787;59.922;10.742;2023-03-13T21:40:52;96287.22;;;25.33;17.70
51315;BME280;65787;59.922;10.742;2023-03-13T21:43:17;96272.69;;;25.21;17.81
51315;BME280;65787;59.922;10.742;2023-03-13T21:45:43;96280.16;;;25.35;16.98
51315;BME280;65787;59.922;10.742;2023-03-13T21:48:08;96278.22;;;25.25;18.04
51315;BME280;65787;59.922;10.742;2023-03-13T21:50:33;96280.19;;;25.28;17.69
51315;BME280;65787;59.922;10.742;2023-03-13T21:52:59;96281.34;;;25.30;17.82
51315;BME280;65787;59.922;10.742;2023-03-13T21:55:24;96283.28;;;25.23;17.50
51315;BME280;65787;59.922;10.742;2023-03-13T21:57:50;96277.06;;;25.26;17.82
51315;BME280;65787;59.922;10.742;2023-03-13T22:00:15;96288.81;;;25.30;17.96
51315;BME280;65787;59.922;10.742;2023-03-13T22:02:41;96305.28;;;25.30;18.00
51315;BME280;65787;59.922;10.742;2023-03-13T22:05:07;96304.09;;;25.38;17.52
51315;BME280;65787;59.922;10.742;2023-03-13T22:07:34;96303.72;;;25.25;17.64
51315;BME280;65787;59.922;10.742;2023-03-13T22:09:59;96306.84;;;25.27;17.92
51315;BME280;65787;59.922;10.742;2023-03-13T22:12:25;96311.94;;;25.29;17.82
51315;BME280;65787;59.922;10.742;2023-03-13T22:14:52;96301.75;;;25.40;17.93
51315;BME280;65787;59.922;10.742;2023-03-13T22:17:18;96311.56;;;25.48;17.76
51315;BME280;65787;59.922;10.742;2023-03-13T22:19:47;96313.50;;;25.44;17.46
51315;BME280;65787;59.922;10.742;2023-03-13T22:22:14;96322.53;;;25.30;17.64
51315;BME280;65787;59.922;10.742;2023-03-13T22:24:39;96336.28;;;25.34;18.00
51315;BME280;65787;59.922;10.742;2023-03-13T22:27:05;96329.22;;;25.26;17.71
51315;BME280;65787;59.922;10.742;2023-03-13T22:29:31;96337.84;;;25.35;17.96
51315;BME280;65787;59.922;10.742;2023-03-13T22:31:59;96335.13;;;25.28;17.58
51315;BME280;65787;59.922;10.742;2023-03-13T22:34:24;96336.28;;;25.27;17.68
51315;BME280;65787;59.922;10.742;2023-03-13T22:36:50;96354.72;;;25.30;17.77
51315;BME280;65787;59.922;10.742;2023-03-13T22:39:15;96353.53;;;25.24;17.59
51315;BME280;65787;59.922;10.742;2023-03-13T22:41:41;96348.84;;;25.32;17.38
51315;BME280;65787;59.922;10.742;2023-03-13T22:44:07;96361.75;;;25.24;17.91
51315;BME280;65787;59.922;10.742;2023-03-13T22:46:32;96376.69;;;25.26;17.77
51315;BME280;65787;59.922;10.742;2023-03-13T22:48:58;96378.63;;;25.22;17.61
51315;BME280;65787;59.922;10.742;2023-03-13T22:51:23;96373.16;;;25.29;17.71
51315;BME280;65787;59.922;10.742;2023-03-13T22:53:49;96346.44;;;25.08;17.67
51315;BME280;65787;59.922;10.742;2023-03-13T22:56:16;96368.03;;;25.14;17.57
51315;BME280;65787;59.922;10.742;2023-03-13T22:58:41;96376.25;;;25.21;17.82
51315;BME280;65787;59.922;10.742;2023-03-13T23:01:12;96378.63;;;25.19;17.55
51315;BME280;65787;59.922;10.742;2023-03-13T23:03:39;96388.06;;;25.28;17.75
51315;BME280;65787;59.922;10.742;2023-03-13T23:06:07;96393.13;;;25.16;18.11
51315;BME280;65787;59.922;10.742;2023-03-13T23:08:33;96405.66;;;25.09;17.85
51315;BME280;65787;59.922;10.742;2023-03-13T23:11:01;96417.03;;;25.08;18.10
51315;BME280;65787;59.922;10.742;2023-03-13T23:13:27;96421.75;;;25.18;18.47
51315;BME280;65787;59.922;10.742;2023-03-13T23:15:53;96410.81;;;25.25;18.69
51315;BME280;65787;59.922;10.742;2023-03-13T23:18:19;96431.63;;;25.48;18.82
51315;BME280;65787;59.922;10.742;2023-03-13T23:20:44;96417.91;;;25.41;19.14
51315;BME280;65787;59.922;10.742;2023-03-13T23:23:10;96416.31;;;25.40;19.43
51315;BME280;65787;59.922;10.742;2023-03-13T23:25:37;96347.63;;;25.00;19.37
51315;BME280;65787;59.922;10.742;2023-03-13T23:28:02;96429.28;;;25.54;19.47
51315;BME280;65787;59.922;10.742;2023-03-13T23:30:28;96449.69;;;25.60;19.72
51315;BME280;65787;59.922;10.742;2023-03-13T23:32:53;96448.91;;;25.45;19.73
51315;BME280;65787;59.922;10.742;2023-03-13T23:35:19;96457.56;;;25.61;20.13
51315;BME280;65787;59.922;10.742;2023-03-13T23:37:49;96462.66;;;25.56;19.92
51315;BME280;65787;59.922;10.742;2023-03-13T23:40:17;96477.59;;;25.73;20.40
51315;BME280;65787;59.922;10.742;2023-03-13T23:42:44;96432.03;;;25.43;20.05
51315;BME280;65787;59.922;10.742;2023-03-13T23:45:10;96459.13;;;25.66;20.45
51315;BME280;65787;59.922;10.742;2023-03-13T23:47:35;96473.63;;;25.70;20.45
51315;BME280;65787;59.922;10.742;2023-03-13T23:50:01;96490.53;;;25.76;20.78
51315;BME280;65787;59.922;10.742;2023-03-13T23:52:26;96491.31;;;25.83;20.75
51315;BME280;65787;59.922;10.742;2023-03-13T23:54:52;96491.34;;;25.80;20.83
51315;BME280;65787;59.922;10.742;2023-03-13T23:57:18;96501.13;;;25.74;20.97
51315;BME280;65787;59.922;10.742;2023-03-13T23:59:44;96507.41;;;25.78;21.09
